Impacts TAF Board INFO
FOR SITUATIONAL AWARENESS. NOT TO BE USED FOR FLIGHT PLANNING PURPOSES.
IDs:

KGWO - Greenwood/Leflore Ar, MS, US

Issued at 1145 UTC 25 Feb 2018
Updated at 1319 UTC 25 Feb 2018
Potential Impact None Slight Moderate High
Time1317Z 25/14Z 25/15Z 25/16Z 25/17Z 25/18Z 25/19Z 25/20Z 25/21Z 25/22Z 25/23Z 26/00Z 26/01Z 26/02Z>>
Type OBS PRVL PRVL PRVL PRVL PRVL PRVL PRVL PRVL PRVL PRVL PRVL PRVL PRVL
VIS 10 >6 >6 >6 >6 >6 >6 >6 >6 >6 >6 >6 >6 >6
CIG 6 110 110 100 100 100 100 100 100 50 50 50 50 50
Cover OVC BKN BKN OVC OVC OVC OVC OVC OVC OVC OVC OVC OVC OVC
FltCat IFR VFR VFR VFR VFR VFR VFR VFR VFR VFR VFR VFR VFR VFR
WX -- -- -- -- -- -- -- -- -- VCSH VCSH VCSH VCSH VCSH
WDir VRB 200 200 60 60 60 60 60 60 90 90 90 90 90
WSpd 4 5 5 6 6 6 6 6 6 3 3 3 3 3
WGst -- -- -- -- -- -- -- -- -- -- -- -- -- --

Raw TAF
KGWO 251145Z 2512/2612 20005KT P6SM FEW017 SCT070 BKN110
  FM251600 06006KT P6SM SCT030 OVC100
  FM252200 09003KT P6SM VCSH BKN050 OVC090
  FM260300 06004KT 6SM SHRA BR BKN007 BKN025 OVC050


Raw METAR
KGWO 251317Z AUTO VRB04KT 10SM BKN006 BKN013 OVC022 13/12 A3009 RMK AO2 T01280122
KGWO 251304Z AUTO 00000KT 10SM FEW006 BKN013 OVC022 12/12 A3010 RMK AO2 T01220122
KGWO 251253Z AUTO VRB03KT 10SM FEW013 BKN022 OVC110 12/12 A3009 RMK AO2 SLP189 T01220122
KGWO 251153Z AUTO 00000KT 10SM FEW075 FEW095 SCT120 12/12 A3008 RMK AO2 SLP183 60072 70113 T01220117 10122 20117 51023
KGWO 251053Z AUTO 20005KT 10SM FEW017 SCT070 BKN110 12/12 A3008 RMK AO2 SLP183 T01220117

METAR Board
Radar Display
Forecast Discussion

FOR SITUATIONAL AWARENESS. NOT TO BE USED FOR FLIGHT PLANNING PURPOSES.